createdAt,value
2019-03-23T00:00:09.933Z,35.63
2019-03-23T00:02:39.333Z,34.00
2019-03-23T00:05:08.753Z,33.63
2019-03-23T00:07:38.092Z,34.93
2019-03-23T00:10:08.765Z,34.80
2019-03-23T00:12:38.099Z,33.97
2019-03-23T00:15:08.725Z,32.33
2019-03-23T00:17:37.977Z,33.43
2019-03-23T00:20:07.585Z,34.50
2019-03-23T00:22:36.902Z,33.93
2019-03-23T00:25:06.614Z,34.57
2019-03-23T00:27:35.953Z,34.20
2019-03-23T00:30:06.667Z,33.10
2019-03-23T00:32:36.049Z,32.70
2019-03-23T00:35:06.476Z,34.27
2019-03-23T00:37:35.783Z,34.87
2019-03-23T00:40:05.990Z,30.93
2019-03-23T00:42:35.328Z,31.33
2019-03-23T00:45:05.437Z,31.87
2019-03-23T00:47:34.738Z,33.07
2019-03-23T00:50:04.582Z,30.87
2019-03-23T00:52:33.949Z,31.93
2019-03-23T00:55:03.353Z,32.80
2019-03-23T00:57:32.602Z,30.30
2019-03-23T01:00:01.888Z,28.67
2019-03-23T01:02:31.219Z,31.10
2019-03-23T01:05:00.470Z,29.80
2019-03-23T01:07:30.764Z,31.47
2019-03-23T01:10:00.041Z,32.67
2019-03-23T01:12:29.278Z,30.27
2019-03-23T01:14:58.653Z,30.27
2019-03-23T01:17:27.897Z,32.47
2019-03-23T01:19:57.177Z,30.70
2019-03-23T01:22:26.453Z,30.87
2019-03-23T01:24:55.692Z,30.17
2019-03-23T01:27:24.948Z,30.63
2019-03-23T01:29:54.225Z,32.27
2019-03-23T01:32:23.469Z,31.53
2019-03-23T01:34:52.726Z,30.37
2019-03-23T01:37:22.661Z,29.33
2019-03-23T01:39:51.902Z,29.93
2019-03-23T01:42:21.153Z,29.40
2019-03-23T01:44:50.421Z,30.27
2019-03-23T01:47:19.653Z,29.20
2019-03-23T01:49:48.934Z,30.30
2019-03-23T01:52:18.581Z,30.60
2019-03-23T01:54:47.816Z,28.30
2019-03-23T01:57:17.129Z,29.43
2019-03-23T01:59:46.385Z,28.80
2019-03-23T02:02:15.639Z,29.57
2019-03-23T02:04:44.893Z,30.07
2019-03-23T02:07:14.368Z,30.13
2019-03-23T02:09:43.689Z,28.27
2019-03-23T02:12:13.055Z,29.27
2019-03-23T02:14:42.361Z,29.47
2019-03-23T02:17:11.589Z,30.17
2019-03-23T02:19:40.837Z,31.00
2019-03-23T02:22:10.275Z,29.43
2019-03-23T02:24:39.558Z,28.33
2019-03-23T02:27:08.789Z,31.27
2019-03-23T02:29:38.045Z,30.50
2019-03-23T02:32:07.313Z,29.87
2019-03-23T02:34:36.562Z,28.40
2019-03-23T02:37:05.897Z,29.97
2019-03-23T02:39:37.981Z,28.77
2019-03-23T02:42:07.224Z,30.03
2019-03-23T02:44:36.483Z,29.63
2019-03-23T02:47:05.745Z,30.87
2019-03-23T02:49:35.054Z,30.27
2019-03-23T02:52:04.415Z,29.43
2019-03-23T02:54:33.721Z,29.23
2019-03-23T02:57:03.041Z,30.13
2019-03-23T02:59:32.304Z,31.63
2019-03-23T03:02:01.549Z,29.63
2019-03-23T03:04:30.862Z,30.90
2019-03-23T03:07:00.154Z,28.73
2019-03-23T03:09:29.404Z,30.63
2019-03-23T03:11:58.841Z,29.63
2019-03-23T03:14:28.128Z,29.83
2019-03-23T03:16:57.354Z,29.90
2019-03-23T03:19:26.626Z,31.43
2019-03-23T03:21:55.888Z,28.40
2019-03-23T03:24:25.135Z,30.07
2019-03-23T03:26:54.374Z,31.50
2019-03-23T03:29:23.646Z,30.80
2019-03-23T03:31:52.903Z,30.40
2019-03-23T03:34:22.239Z,31.00
2019-03-23T03:36:51.538Z,31.03
2019-03-23T03:39:20.797Z,30.57
2019-03-23T03:41:50.040Z,31.10
2019-03-23T03:44:19.350Z,28.57
2019-03-23T03:46:48.594Z,30.13
2019-03-23T03:49:17.849Z,29.47
2019-03-23T03:51:47.109Z,30.90
2019-03-23T03:54:16.350Z,29.83
2019-03-23T03:56:45.605Z,29.33
2019-03-23T03:59:14.949Z,28.27
2019-03-23T04:01:44.192Z,33.40
2019-03-23T04:04:13.516Z,31.00
2019-03-23T04:06:42.790Z,30.73
2019-03-23T04:09:12.041Z,27.83
2019-03-23T04:11:41.329Z,33.00
2019-03-23T04:14:10.606Z,30.90
2019-03-23T04:16:39.853Z,31.70
2019-03-23T04:19:11.229Z,31.37
2019-03-23T04:21:40.494Z,29.80
2019-03-23T04:24:09.775Z,32.97
2019-03-23T04:26:39.478Z,29.67
2019-03-23T04:29:08.985Z,35.57
2019-03-23T04:31:38.217Z,33.23
2019-03-23T04:34:07.597Z,34.90
2019-03-23T04:36:36.888Z,34.23
2019-03-23T04:39:07.262Z,34.47
2019-03-23T04:41:36.582Z,35.37
2019-03-23T04:44:05.842Z,35.27
2019-03-23T04:46:35.081Z,36.67
2019-03-23T04:49:04.351Z,34.23
2019-03-23T04:51:33.648Z,36.60
2019-03-23T04:54:02.884Z,35.17
2019-03-23T04:56:32.133Z,36.07
2019-03-23T04:59:01.410Z,38.73
2019-03-23T05:01:30.645Z,37.67
2019-03-23T05:03:59.917Z,35.93
2019-03-23T05:06:29.169Z,36.10
2019-03-23T05:08:58.421Z,38.80
2019-03-23T05:11:27.688Z,34.93
2019-03-23T05:13:56.932Z,33.83
2019-03-23T05:16:26.177Z,34.70
2019-03-23T05:18:55.437Z,37.13
2019-03-23T05:21:24.705Z,37.37
2019-03-23T05:23:53.967Z,37.37
2019-03-23T05:26:23.201Z,36.77
2019-03-23T05:28:52.567Z,33.87
2019-03-23T05:31:21.881Z,35.60
2019-03-23T05:33:51.225Z,36.50
2019-03-23T05:36:20.505Z,34.87
2019-03-23T05:38:49.761Z,33.27
2019-03-23T05:41:19.021Z,35.23
2019-03-23T05:43:48.316Z,34.80
2019-03-23T05:46:17.653Z,36.40
2019-03-23T05:48:46.893Z,34.53
2019-03-23T05:51:16.169Z,37.87
2019-03-23T05:53:45.872Z,34.87
2019-03-23T05:56:15.204Z,36.60
2019-03-23T05:58:44.447Z,34.73
2019-03-23T06:01:13.739Z,35.63
2019-03-23T06:03:43.021Z,33.17
2019-03-23T06:06:12.292Z,32.97
2019-03-23T06:08:41.533Z,34.33
2019-03-23T06:11:10.866Z,35.47
2019-03-23T06:13:40.280Z,35.40
2019-03-23T06:16:09.513Z,32.90
2019-03-23T06:18:38.755Z,34.47
2019-03-23T06:21:08.022Z,33.73
2019-03-23T06:23:37.285Z,34.10
2019-03-23T06:26:06.602Z,34.43
2019-03-23T06:28:35.867Z,35.20
2019-03-23T06:31:05.189Z,33.47
2019-03-23T06:33:34.525Z,31.07
2019-03-23T06:36:03.805Z,32.33
2019-03-23T06:38:33.060Z,31.23
2019-03-23T06:41:02.301Z,33.00
2019-03-23T06:43:31.589Z,32.17
2019-03-23T06:46:00.847Z,32.90
2019-03-23T06:48:30.153Z,31.27
2019-03-23T06:50:59.455Z,32.83
2019-03-23T06:53:28.705Z,32.13
2019-03-23T06:55:57.983Z,29.97
2019-03-23T06:58:27.263Z,32.63
2019-03-23T07:00:56.609Z,33.27
2019-03-23T07:03:25.850Z,31.07
2019-03-23T07:05:55.138Z,32.70
2019-03-23T07:08:31.990Z,32.60
2019-03-23T07:10:55.408Z,32.77
2019-03-23T07:13:24.677Z,33.23
2019-03-23T07:15:53.925Z,32.17
2019-03-23T07:18:25.588Z,33.17
2019-03-23T07:20:54.890Z,33.20
2019-03-23T07:23:24.142Z,31.33
2019-03-23T07:25:53.688Z,32.47
2019-03-23T07:28:22.949Z,31.93
2019-03-23T07:30:52.236Z,32.73
2019-03-23T07:33:21.514Z,33.90
2019-03-23T07:35:50.808Z,31.73
2019-03-23T07:38:20.050Z,31.33
2019-03-23T07:40:49.294Z,31.50
2019-03-23T07:43:18.632Z,32.00
2019-03-23T07:45:47.982Z,30.23
2019-03-23T07:48:17.234Z,30.23
2019-03-23T07:50:46.533Z,28.20
2019-03-23T07:53:15.789Z,31.20
2019-03-23T07:55:45.035Z,30.50
2019-03-23T07:58:14.317Z,30.70
2019-03-23T08:00:43.557Z,30.20
2019-03-23T08:03:12.933Z,29.93
2019-03-23T08:05:42.290Z,30.20
2019-03-23T08:08:11.593Z,30.57
2019-03-23T08:10:40.849Z,28.70
2019-03-23T08:13:10.185Z,29.23
2019-03-23T08:15:39.567Z,28.43
2019-03-23T08:18:08.920Z,28.23
2019-03-23T08:20:38.203Z,30.00
2019-03-23T08:23:07.456Z,28.33
2019-03-23T08:25:36.701Z,28.53
2019-03-23T08:28:05.985Z,28.20
2019-03-23T08:30:35.258Z,30.13
2019-03-23T08:33:04.579Z,28.97
2019-03-23T08:35:33.856Z,27.53
2019-03-23T08:38:03.084Z,28.87
2019-03-23T08:40:32.335Z,27.47
2019-03-23T08:43:04.445Z,28.07
2019-03-23T08:45:33.685Z,28.43
2019-03-23T08:48:02.977Z,27.20
2019-03-23T08:50:32.293Z,27.40
2019-03-23T08:53:01.537Z,26.47
2019-03-23T08:55:30.794Z,25.93
2019-03-23T08:58:00.058Z,26.83
2019-03-23T09:00:29.293Z,25.47
2019-03-23T09:02:58.546Z,24.53
2019-03-23T09:05:27.819Z,23.23
2019-03-23T09:07:57.089Z,23.03
2019-03-23T09:10:26.869Z,24.40
2019-03-23T09:12:56.133Z,24.43
2019-03-23T09:15:25.621Z,25.87
2019-03-23T09:17:55.066Z,22.77
2019-03-23T09:20:24.393Z,22.97
2019-03-23T09:22:55.701Z,23.87
2019-03-23T09:25:25.077Z,23.57
2019-03-23T09:27:54.411Z,21.73
2019-03-23T09:30:23.751Z,22.10
2019-03-23T09:32:53.020Z,21.80
2019-03-23T09:35:22.281Z,22.93
2019-03-23T09:37:53.753Z,23.53
2019-03-23T09:40:23.052Z,22.73
2019-03-23T09:42:52.466Z,23.07
2019-03-23T09:45:21.704Z,22.00
2019-03-23T09:47:50.983Z,22.77
2019-03-23T09:50:20.277Z,20.90
2019-03-23T09:52:49.779Z,20.50
2019-03-23T09:55:19.001Z,21.50
2019-03-23T09:57:49.547Z,20.90
2019-03-23T10:00:18.818Z,20.97
2019-03-23T10:02:48.081Z,22.00
2019-03-23T10:05:17.383Z,21.60
2019-03-23T10:07:49.935Z,20.60
2019-03-23T10:10:22.057Z,21.70
2019-03-23T10:12:50.159Z,22.13
2019-03-23T10:15:19.466Z,21.30
2019-03-23T10:17:48.759Z,21.27
2019-03-23T10:20:18.034Z,20.73
2019-03-23T10:22:47.285Z,21.33
2019-03-23T10:25:16.621Z,19.43
2019-03-23T10:27:45.883Z,21.13
2019-03-23T10:30:15.211Z,20.00
2019-03-23T10:32:44.482Z,19.60
2019-03-23T10:35:13.858Z,19.17
2019-03-23T10:37:43.157Z,21.13
2019-03-23T10:40:12.953Z,20.33
2019-03-23T10:42:43.394Z,19.20
2019-03-23T10:45:13.111Z,20.00
2019-03-23T10:47:42.444Z,20.30
2019-03-23T10:50:12.077Z,20.80
2019-03-23T10:52:41.317Z,20.10
2019-03-23T10:55:10.716Z,22.03
2019-03-23T10:57:40.082Z,21.47
2019-03-23T11:00:10.163Z,20.13
2019-03-23T11:02:39.485Z,20.03
2019-03-23T11:05:09.026Z,21.00
2019-03-23T11:07:38.433Z,20.63
2019-03-23T11:10:08.361Z,20.80
2019-03-23T11:12:37.805Z,19.20
2019-03-23T11:15:07.465Z,20.83
2019-03-23T11:17:36.720Z,21.07
2019-03-23T11:20:06.556Z,19.77
2019-03-23T11:22:35.793Z,21.47
2019-03-23T11:25:06.217Z,20.90
2019-03-23T11:27:35.565Z,21.13
2019-03-23T11:30:05.382Z,20.23
2019-03-23T11:32:34.657Z,21.47
2019-03-23T11:35:04.621Z,20.47
2019-03-23T11:37:35.765Z,22.53
2019-03-23T11:40:05.751Z,21.77
2019-03-23T11:42:35.120Z,22.13
2019-03-23T11:45:04.934Z,20.17
2019-03-23T11:47:34.174Z,21.30
2019-03-23T11:50:03.878Z,19.93
2019-03-23T11:52:33.145Z,20.77
2019-03-23T11:55:02.382Z,20.57
2019-03-23T11:57:31.665Z,19.40
2019-03-23T12:00:00.924Z,20.73
2019-03-23T12:02:30.189Z,18.57
2019-03-23T12:04:59.468Z,17.67
2019-03-23T12:07:28.732Z,17.63
2019-03-23T12:09:57.974Z,17.17
2019-03-23T12:12:28.592Z,18.23
2019-03-23T12:14:57.865Z,17.33
2019-03-23T12:17:27.121Z,17.60
2019-03-23T12:19:56.518Z,16.77
2019-03-23T12:22:25.787Z,16.80
2019-03-23T12:24:55.025Z,16.60
2019-03-23T12:27:24.803Z,15.73
2019-03-23T12:29:54.125Z,15.67
2019-03-23T12:32:23.409Z,15.90
2019-03-23T12:34:52.724Z,14.60
2019-03-23T12:37:22.037Z,14.13
2019-03-23T12:39:51.329Z,13.10
2019-03-23T12:42:20.813Z,11.80
2019-03-23T12:44:50.078Z,10.63
2019-03-23T12:47:19.414Z,10.67
2019-03-23T12:49:48.665Z,10.47
2019-03-23T12:52:17.936Z,11.47
2019-03-23T12:54:47.270Z,10.30
2019-03-23T12:57:16.673Z,11.23
2019-03-23T12:59:46.003Z,9.67
2019-03-23T13:02:15.273Z,9.67
2019-03-23T13:04:44.542Z,9.47
2019-03-23T13:07:13.804Z,8.47
2019-03-23T13:09:43.112Z,8.27
2019-03-23T13:12:12.676Z,6.97
2019-03-23T13:14:41.913Z,6.73
2019-03-23T13:17:11.182Z,5.37
2019-03-23T13:19:40.547Z,6.03
2019-03-23T13:22:09.821Z,5.57
2019-03-23T13:24:39.076Z,4.67
2019-03-23T13:27:08.354Z,3.53
2019-03-23T13:29:37.614Z,3.60
2019-03-23T13:32:06.925Z,3.13
2019-03-23T13:34:36.232Z,3.10
2019-03-23T13:37:05.465Z,3.27
2019-03-23T13:39:34.779Z,2.47
2019-03-23T13:42:04.065Z,3.70
2019-03-23T13:44:33.321Z,3.20
2019-03-23T13:47:02.581Z,3.20
2019-03-23T13:49:32.008Z,2.53
2019-03-23T13:52:01.905Z,2.80
2019-03-23T13:54:31.345Z,3.40
2019-03-23T13:57:00.641Z,3.10
2019-03-23T13:59:29.904Z,2.90
2019-03-23T14:01:59.137Z,3.27
2019-03-23T14:04:28.424Z,3.40
2019-03-23T14:06:57.733Z,3.43
2019-03-23T14:09:26.983Z,4.20
2019-03-23T14:11:56.265Z,3.50
2019-03-23T14:14:25.526Z,3.40
2019-03-23T14:16:54.773Z,2.27
2019-03-23T14:19:24.037Z,3.30
2019-03-23T14:21:53.349Z,3.33
2019-03-23T14:24:22.615Z,3.60
2019-03-23T14:26:51.877Z,2.73
2019-03-23T14:29:21.125Z,3.13
2019-03-23T14:31:50.393Z,3.50
2019-03-23T14:34:19.731Z,2.57
2019-03-23T14:36:48.973Z,3.50
2019-03-23T14:39:18.226Z,2.80
2019-03-23T14:41:47.585Z,3.20
2019-03-23T14:44:16.858Z,2.70
2019-03-23T14:46:46.128Z,3.37
2019-03-23T14:49:15.373Z,3.37
2019-03-23T14:51:44.658Z,3.17
2019-03-23T14:54:13.964Z,3.20
2019-03-23T14:56:43.241Z,3.50
2019-03-23T14:59:12.513Z,3.03
2019-03-23T15:01:41.750Z,2.93
2019-03-23T15:04:11.028Z,3.30
2019-03-23T15:06:40.301Z,3.27
2019-03-23T15:09:09.566Z,3.00
2019-03-23T15:11:38.831Z,2.63
2019-03-23T15:14:08.085Z,2.47
2019-03-23T15:16:37.342Z,2.80
2019-03-23T15:19:06.617Z,3.10
2019-03-23T15:21:36.009Z,2.70
2019-03-23T15:24:05.833Z,3.27
2019-03-23T15:26:35.099Z,2.73
2019-03-23T15:29:04.342Z,4.20
2019-03-23T15:31:33.605Z,3.00
2019-03-23T15:34:02.911Z,3.17
2019-03-23T15:36:32.161Z,3.17
2019-03-23T15:39:01.412Z,2.83
2019-03-23T15:41:30.719Z,3.00
2019-03-23T15:43:59.986Z,4.13
2019-03-23T15:46:29.233Z,3.37
2019-03-23T15:48:58.521Z,3.00
2019-03-23T15:51:27.847Z,2.93
2019-03-23T15:53:57.106Z,3.37
2019-03-23T15:56:26.547Z,2.97
2019-03-23T15:58:55.893Z,3.23
2019-03-23T16:01:25.129Z,2.53
2019-03-23T16:03:54.438Z,2.60
2019-03-23T16:06:23.706Z,3.10
2019-03-23T16:08:53.038Z,2.77
2019-03-23T16:11:23.353Z,2.97
2019-03-23T16:13:52.586Z,3.03
2019-03-23T16:16:21.916Z,2.70
2019-03-23T16:18:51.266Z,2.77
2019-03-23T16:21:20.556Z,2.73
2019-03-23T16:23:49.845Z,3.87
2019-03-23T16:26:21.565Z,2.90
2019-03-23T16:28:50.798Z,3.17
2019-03-23T16:31:20.125Z,3.67
2019-03-23T16:33:49.434Z,3.20
2019-03-23T16:36:18.723Z,3.23
2019-03-23T16:38:49.453Z,3.37
2019-03-23T16:41:18.813Z,3.33
2019-03-23T16:43:48.183Z,3.57
2019-03-23T16:46:17.426Z,2.90
2019-03-23T16:48:46.778Z,3.07
2019-03-23T16:51:16.065Z,2.57
2019-03-23T16:53:46.394Z,2.13
2019-03-23T16:56:18.714Z,3.13
2019-03-23T16:58:55.497Z,3.27
2019-03-23T17:01:22.095Z,3.33
2019-03-23T17:03:51.483Z,3.13
2019-03-23T17:06:20.837Z,2.83
2019-03-23T17:08:50.155Z,2.53
2019-03-23T17:11:19.427Z,2.70
2019-03-23T17:13:48.803Z,3.50
2019-03-23T17:16:18.045Z,2.70
2019-03-23T17:18:47.337Z,2.97
2019-03-23T17:21:16.721Z,2.50
2019-03-23T17:23:47.234Z,3.13
2019-03-23T17:26:17.209Z,3.27
2019-03-23T17:28:46.453Z,3.30
2019-03-23T17:31:15.718Z,3.20
2019-03-23T17:33:44.982Z,3.67
2019-03-23T17:36:14.345Z,2.73
2019-03-23T17:38:43.593Z,3.30
2019-03-23T17:41:12.933Z,3.23
2019-03-23T17:43:42.244Z,2.87
2019-03-23T17:46:11.746Z,3.03
2019-03-23T17:48:41.030Z,3.83
2019-03-23T17:51:10.335Z,3.30
2019-03-23T17:53:39.636Z,3.63
2019-03-23T17:56:08.902Z,3.17
2019-03-23T17:58:38.158Z,3.37
2019-03-23T18:01:19.298Z,4.53
2019-03-23T18:03:49.607Z,3.40
2019-03-23T18:06:20.952Z,3.17
2019-03-23T18:08:52.111Z,3.83
2019-03-23T18:11:22.554Z,3.87
2019-03-23T18:13:51.854Z,4.43
2019-03-23T18:16:21.093Z,3.47
2019-03-23T18:18:50.360Z,4.40
2019-03-23T18:21:19.661Z,3.97
2019-03-23T18:23:48.966Z,3.83
2019-03-23T18:26:18.345Z,4.73
2019-03-23T18:28:47.609Z,4.17
2019-03-23T18:31:16.842Z,5.63
2019-03-23T18:33:46.086Z,6.27
2019-03-23T18:36:15.393Z,4.90
2019-03-23T18:38:44.705Z,5.70
2019-03-23T18:41:14.094Z,6.30
2019-03-23T18:43:43.405Z,7.60
2019-03-23T18:46:12.750Z,5.10
2019-03-23T18:48:45.013Z,4.40
2019-03-23T18:51:14.493Z,4.67
2019-03-23T18:53:43.721Z,5.53
2019-03-23T18:56:13.006Z,5.27
2019-03-23T18:58:42.338Z,4.57
2019-03-23T19:01:11.702Z,5.07
2019-03-23T19:03:41.029Z,5.23
2019-03-23T19:06:10.770Z,3.70
2019-03-23T19:08:42.391Z,3.67
2019-03-23T19:11:11.379Z,4.60
2019-03-23T19:13:40.694Z,5.13
2019-03-23T19:16:09.997Z,5.50
2019-03-23T19:18:39.255Z,5.73
2019-03-23T19:21:08.537Z,5.73
2019-03-23T19:23:37.798Z,6.03
2019-03-23T19:26:07.122Z,5.43
2019-03-23T19:28:36.415Z,5.27
2019-03-23T19:31:05.723Z,6.07
2019-03-23T19:33:34.980Z,5.63
2019-03-23T19:36:04.323Z,4.73
2019-03-23T19:38:33.577Z,4.23
2019-03-23T19:41:02.914Z,3.93
2019-03-23T19:43:32.201Z,3.67
2019-03-23T19:46:01.469Z,3.70
2019-03-23T19:48:30.737Z,3.97
2019-03-23T19:51:00.007Z,4.17
2019-03-23T19:53:29.261Z,5.20
2019-03-23T19:55:58.535Z,5.13
2019-03-23T19:58:27.832Z,5.27
2019-03-23T20:00:57.113Z,4.57
2019-03-23T20:03:26.397Z,4.23
2019-03-23T20:05:55.660Z,4.80
2019-03-23T20:08:25.655Z,3.87
2019-03-23T20:10:55.085Z,4.67
2019-03-23T20:13:24.369Z,7.70
2019-03-23T20:15:53.634Z,6.77
2019-03-23T20:18:23.217Z,6.20
2019-03-23T20:20:52.474Z,6.63
2019-03-23T20:23:21.716Z,6.13
2019-03-23T20:25:50.954Z,5.30
2019-03-23T20:28:20.253Z,4.83
2019-03-23T20:30:49.508Z,4.80
2019-03-23T20:33:19.641Z,6.03
2019-03-23T20:35:49.229Z,4.93
2019-03-23T20:38:18.469Z,5.07
2019-03-23T20:40:47.737Z,5.33
2019-03-23T20:43:17.043Z,4.70
2019-03-23T20:45:46.461Z,4.60
2019-03-23T20:48:15.904Z,4.30
2019-03-23T20:50:45.223Z,3.97
2019-03-23T20:53:16.142Z,4.80
2019-03-23T20:55:45.401Z,4.60
2019-03-23T20:58:14.697Z,6.23
2019-03-23T21:00:44.087Z,7.77
2019-03-23T21:03:13.463Z,5.83
2019-03-23T21:05:42.817Z,6.70
2019-03-23T21:08:12.119Z,7.03
2019-03-23T21:10:41.377Z,5.90
2019-03-23T21:13:10.643Z,4.67
2019-03-23T21:15:39.937Z,4.83
2019-03-23T21:18:09.208Z,4.03
2019-03-23T21:20:38.493Z,3.43
2019-03-23T21:23:07.738Z,4.17
2019-03-23T21:25:37.243Z,4.60
2019-03-23T21:28:06.751Z,4.03
2019-03-23T21:30:36.082Z,3.93
2019-03-23T21:33:05.602Z,3.93
2019-03-23T21:35:34.862Z,3.97
2019-03-23T21:38:04.290Z,3.60
2019-03-23T21:40:35.077Z,4.30
2019-03-23T21:43:04.679Z,4.67
2019-03-23T21:45:33.980Z,4.63
2019-03-23T21:48:03.233Z,4.80
2019-03-23T21:50:32.501Z,5.00
2019-03-23T21:53:01.769Z,3.77
2019-03-23T21:55:31.071Z,4.63
2019-03-23T21:58:00.365Z,4.40
2019-03-23T22:00:34.384Z,4.63
2019-03-23T22:03:04.033Z,4.57
2019-03-23T22:05:33.469Z,4.93
2019-03-23T22:08:02.710Z,4.43
2019-03-23T22:10:32.154Z,4.77
2019-03-23T22:13:01.490Z,4.57
2019-03-23T22:15:34.608Z,3.77
2019-03-23T22:18:04.897Z,4.00
2019-03-23T22:20:34.299Z,4.10
2019-03-23T22:23:03.617Z,3.70
2019-03-23T22:25:32.903Z,3.60
2019-03-23T22:28:02.182Z,3.47
2019-03-23T22:30:31.484Z,3.63
2019-03-23T22:33:00.881Z,3.73
2019-03-23T22:35:30.206Z,3.90
2019-03-23T22:37:59.433Z,5.17
2019-03-23T22:40:28.717Z,5.07
2019-03-23T22:42:58.123Z,4.87
2019-03-23T22:45:27.406Z,5.80
2019-03-23T22:47:56.692Z,5.10
2019-03-23T22:50:26.019Z,5.77
2019-03-23T22:52:55.346Z,4.93
2019-03-23T22:55:24.968Z,5.63
2019-03-23T22:57:59.477Z,5.53
2019-03-23T23:00:41.346Z,5.00
2019-03-23T23:03:11.194Z,5.47
2019-03-23T23:05:40.405Z,5.60
2019-03-23T23:08:09.666Z,5.10
2019-03-23T23:10:38.937Z,9.37
2019-03-23T23:13:08.249Z,8.33
2019-03-23T23:15:37.600Z,6.37
2019-03-23T23:18:07.159Z,6.10
2019-03-23T23:20:36.859Z,6.50
2019-03-23T23:23:06.373Z,5.70
2019-03-23T23:25:35.749Z,5.90
2019-03-23T23:28:05.087Z,5.17
2019-03-23T23:30:34.429Z,3.93
2019-03-23T23:33:03.882Z,4.67
2019-03-23T23:35:33.533Z,5.03
2019-03-23T23:38:06.521Z,4.40
2019-03-23T23:40:35.787Z,4.23
2019-03-23T23:43:05.205Z,3.97
2019-03-23T23:45:34.465Z,3.40
2019-03-23T23:48:03.721Z,3.97
2019-03-23T23:50:33.006Z,4.03
2019-03-23T23:53:02.266Z,5.00
2019-03-23T23:55:31.498Z,4.03
2019-03-23T23:58:00.762Z,4.53
